sensor_id;sensor_type;location;lat;lon;timestamp;pressure;altitude;pressure_sealevel;temperature;humidity
29839;BME280;18669;53.356;-1.464;2022-07-18T00:00:31;101049.75;;;24.56;57.62
29839;BME280;18669;53.356;-1.464;2022-07-18T00:02:57;101055.50;;;24.51;57.11
29839;BME280;18669;53.356;-1.464;2022-07-18T00:05:23;101051.22;;;24.49;57.06
29839;BME280;18669;53.356;-1.464;2022-07-18T00:07:48;101054.44;;;24.41;57.86
29839;BME280;18669;53.356;-1.464;2022-07-18T00:10:14;101052.31;;;24.33;59.51
29839;BME280;18669;53.356;-1.464;2022-07-18T00:12:40;101048.13;;;24.29;60.10
29839;BME280;18669;53.356;-1.464;2022-07-18T00:15:07;101045.78;;;24.24;60.16
29839;BME280;18669;53.356;-1.464;2022-07-18T00:17:33;101042.97;;;24.13;62.31
29839;BME280;18669;53.356;-1.464;2022-07-18T00:19:59;101040.22;;;24.02;63.52
29839;BME280;18669;53.356;-1.464;2022-07-18T00:22:25;101034.38;;;23.95;63.09
29839;BME280;18669;53.356;-1.464;2022-07-18T00:24:51;101037.28;;;23.92;63.39
29839;BME280;18669;53.356;-1.464;2022-07-18T00:27:17;101022.03;;;23.79;65.72
29839;BME280;18669;53.356;-1.464;2022-07-18T00:29:43;101033.00;;;23.76;65.57
29839;BME280;18669;53.356;-1.464;2022-07-18T00:32:09;101040.72;;;23.68;64.61
29839;BME280;18669;53.356;-1.464;2022-07-18T00:34:35;101040.19;;;23.63;69.42
29839;BME280;18669;53.356;-1.464;2022-07-18T00:37:01;101039.56;;;23.59;70.82
29839;BME280;18669;53.356;-1.464;2022-07-18T00:39:27;101044.38;;;23.54;68.70
29839;BME280;18669;53.356;-1.464;2022-07-18T00:41:53;101034.69;;;23.51;69.14
29839;BME280;18669;53.356;-1.464;2022-07-18T00:44:23;101041.69;;;23.41;71.46
29839;BME280;18669;53.356;-1.464;2022-07-18T00:46:50;101039.09;;;23.39;72.95
29839;BME280;18669;53.356;-1.464;2022-07-18T00:49:17;101039.28;;;23.36;71.77
29839;BME280;18669;53.356;-1.464;2022-07-18T00:51:42;101035.63;;;23.37;70.49
29839;BME280;18669;53.356;-1.464;2022-07-18T00:54:08;101038.44;;;23.36;69.97
29839;BME280;18669;53.356;-1.464;2022-07-18T00:56:34;101038.66;;;23.33;70.30
29839;BME280;18669;53.356;-1.464;2022-07-18T00:59:00;101040.22;;;23.22;72.89
29839;BME280;18669;53.356;-1.464;2022-07-18T01:01:26;101039.84;;;23.14;75.14
29839;BME280;18669;53.356;-1.464;2022-07-18T01:04:11;101034.16;;;23.06;76.14
29839;BME280;18669;53.356;-1.464;2022-07-18T01:06:38;101032.44;;;23.05;73.02
29839;BME280;18669;53.356;-1.464;2022-07-18T01:09:04;101038.97;;;23.01;72.02
29839;BME280;18669;53.356;-1.464;2022-07-18T01:11:29;101042.69;;;22.98;73.92
29839;BME280;18669;53.356;-1.464;2022-07-18T01:13:55;101035.41;;;23.00;74.17
29839;BME280;18669;53.356;-1.464;2022-07-18T01:16:21;101032.66;;;23.02;74.05
29839;BME280;18669;53.356;-1.464;2022-07-18T01:18:47;101033.28;;;23.05;75.29
29839;BME280;18669;53.356;-1.464;2022-07-18T01:21:14;101031.56;;;23.04;74.51
29839;BME280;18669;53.356;-1.464;2022-07-18T01:23:41;101029.41;;;22.97;75.56
29839;BME280;18669;53.356;-1.464;2022-07-18T01:26:07;101028.75;;;22.93;75.59
29839;BME280;18669;53.356;-1.464;2022-07-18T01:28:33;101030.00;;;22.87;75.62
29839;BME280;18669;53.356;-1.464;2022-07-18T01:30:59;101027.63;;;22.83;76.44
29839;BME280;18669;53.356;-1.464;2022-07-18T01:33:25;101024.28;;;22.79;77.17
29839;BME280;18669;53.356;-1.464;2022-07-18T01:35:50;101021.34;;;22.69;76.20
29839;BME280;18669;53.356;-1.464;2022-07-18T01:38:17;101027.88;;;22.65;77.57
29839;BME280;18669;53.356;-1.464;2022-07-18T01:40:44;101028.06;;;22.62;78.28
29839;BME280;18669;53.356;-1.464;2022-07-18T01:43:10;101029.59;;;22.66;76.91
29839;BME280;18669;53.356;-1.464;2022-07-18T01:45:36;101015.34;;;22.65;79.14
29839;BME280;18669;53.356;-1.464;2022-07-18T01:48:02;101017.06;;;22.67;78.02
29839;BME280;18669;53.356;-1.464;2022-07-18T01:50:28;101018.88;;;22.66;76.80
29839;BME280;18669;53.356;-1.464;2022-07-18T01:52:55;101009.22;;;22.63;78.65
29839;BME280;18669;53.356;-1.464;2022-07-18T01:55:21;101011.91;;;22.63;77.96
29839;BME280;18669;53.356;-1.464;2022-07-18T01:57:46;100996.00;;;22.60;77.22
29839;BME280;18669;53.356;-1.464;2022-07-18T02:00:12;101002.53;;;22.56;78.77
29839;BME280;18669;53.356;-1.464;2022-07-18T02:02:38;101001.78;;;22.54;78.23
29839;BME280;18669;53.356;-1.464;2022-07-18T02:05:05;101004.56;;;22.53;78.73
29839;BME280;18669;53.356;-1.464;2022-07-18T02:07:32;101001.88;;;22.53;76.12
29839;BME280;18669;53.356;-1.464;2022-07-18T02:09:59;100998.44;;;22.50;75.34
29839;BME280;18669;53.356;-1.464;2022-07-18T02:12:25;100996.53;;;22.53;77.22
29839;BME280;18669;53.356;-1.464;2022-07-18T02:14:51;100999.78;;;22.58;77.10
29839;BME280;18669;53.356;-1.464;2022-07-18T02:17:17;101001.00;;;22.52;79.17
29839;BME280;18669;53.356;-1.464;2022-07-18T02:19:45;100997.69;;;22.48;80.85
29839;BME280;18669;53.356;-1.464;2022-07-18T02:22:11;100992.19;;;22.50;80.24
29839;BME280;18669;53.356;-1.464;2022-07-18T02:24:37;100990.47;;;22.49;79.52
29839;BME280;18669;53.356;-1.464;2022-07-18T02:27:03;100989.53;;;22.50;77.84
29839;BME280;18669;53.356;-1.464;2022-07-18T02:29:29;100980.31;;;22.54;71.86
29839;BME280;18669;53.356;-1.464;2022-07-18T02:31:55;100976.78;;;22.54;75.97
29839;BME280;18669;53.356;-1.464;2022-07-18T02:34:21;100983.00;;;22.54;75.06
29839;BME280;18669;53.356;-1.464;2022-07-18T02:36:46;100977.56;;;22.56;70.34
29839;BME280;18669;53.356;-1.464;2022-07-18T02:39:14;100975.84;;;22.55;74.01
29839;BME280;18669;53.356;-1.464;2022-07-18T02:41:41;100980.31;;;22.54;65.80
29839;BME280;18669;53.356;-1.464;2022-07-18T02:44:06;100971.13;;;22.58;66.41
29839;BME280;18669;53.356;-1.464;2022-07-18T02:46:32;100974.34;;;22.63;63.99
29839;BME280;18669;53.356;-1.464;2022-07-18T02:48:58;100975.97;;;22.66;68.76
29839;BME280;18669;53.356;-1.464;2022-07-18T02:51:24;100973.19;;;22.68;66.54
29839;BME280;18669;53.356;-1.464;2022-07-18T02:53:50;100966.19;;;22.65;58.42
29839;BME280;18669;53.356;-1.464;2022-07-18T02:56:15;100964.38;;;22.65;54.36
29839;BME280;18669;53.356;-1.464;2022-07-18T02:58:41;100955.81;;;22.73;57.81
29839;BME280;18669;53.356;-1.464;2022-07-18T03:01:07;100959.28;;;22.88;52.94
29839;BME280;18669;53.356;-1.464;2022-07-18T03:03:33;100948.03;;;22.96;51.46
29839;BME280;18669;53.356;-1.464;2022-07-18T03:06:00;100954.06;;;23.00;49.14
29839;BME280;18669;53.356;-1.464;2022-07-18T03:08:26;100950.97;;;23.06;47.24
29839;BME280;18669;53.356;-1.464;2022-07-18T03:10:51;100957.72;;;23.12;49.90
29839;BME280;18669;53.356;-1.464;2022-07-18T03:13:17;100958.16;;;23.05;52.32
29839;BME280;18669;53.356;-1.464;2022-07-18T03:15:43;100953.75;;;23.04;49.43
29839;BME280;18669;53.356;-1.464;2022-07-18T03:18:09;100949.13;;;23.06;47.01
29839;BME280;18669;53.356;-1.464;2022-07-18T03:20:35;100952.50;;;23.10;45.30
29839;BME280;18669;53.356;-1.464;2022-07-18T03:23:04;100953.13;;;23.14;47.67
29839;BME280;18669;53.356;-1.464;2022-07-18T03:25:31;100956.00;;;23.10;45.26
29839;BME280;18669;53.356;-1.464;2022-07-18T03:27:57;100945.28;;;23.10;47.37
29839;BME280;18669;53.356;-1.464;2022-07-18T03:30:22;100942.72;;;23.09;46.22
29839;BME280;18669;53.356;-1.464;2022-07-18T03:32:48;100940.88;;;23.09;43.76
29839;BME280;18669;53.356;-1.464;2022-07-18T03:35:14;100936.06;;;23.15;41.80
29839;BME280;18669;53.356;-1.464;2022-07-18T03:37:40;100929.50;;;23.19;41.65
29839;BME280;18669;53.356;-1.464;2022-07-18T03:40:06;100929.88;;;23.27;41.30
29839;BME280;18669;53.356;-1.464;2022-07-18T03:42:33;100932.03;;;23.22;44.54
29839;BME280;18669;53.356;-1.464;2022-07-18T03:45:00;100927.78;;;23.18;44.78
29839;BME280;18669;53.356;-1.464;2022-07-18T03:47:26;100931.53;;;23.15;42.82
29839;BME280;18669;53.356;-1.464;2022-07-18T03:49:52;100933.56;;;23.12;43.85
29839;BME280;18669;53.356;-1.464;2022-07-18T03:52:17;100925.66;;;23.10;41.79
29839;BME280;18669;53.356;-1.464;2022-07-18T03:54:44;100929.72;;;23.03;46.17
29839;BME280;18669;53.356;-1.464;2022-07-18T03:57:10;100926.38;;;22.99;41.76
29839;BME280;18669;53.356;-1.464;2022-07-18T03:59:36;100935.94;;;23.03;41.01
29839;BME280;18669;53.356;-1.464;2022-07-18T04:02:02;100935.41;;;23.11;40.66
29839;BME280;18669;53.356;-1.464;2022-07-18T04:04:28;100926.06;;;23.17;39.57
29839;BME280;18669;53.356;-1.464;2022-07-18T04:06:54;100929.72;;;23.16;40.66
29839;BME280;18669;53.356;-1.464;2022-07-18T04:09:25;100927.59;;;23.21;39.56
29839;BME280;18669;53.356;-1.464;2022-07-18T04:11:52;100925.78;;;23.34;37.93
29839;BME280;18669;53.356;-1.464;2022-07-18T04:14:23;100917.94;;;23.31;38.49
29839;BME280;18669;53.356;-1.464;2022-07-18T04:16:55;100926.53;;;23.36;38.00
29839;BME280;18669;53.356;-1.464;2022-07-18T04:19:21;100922.13;;;23.35;37.91
29839;BME280;18669;53.356;-1.464;2022-07-18T04:21:49;100918.59;;;23.35;39.36
29839;BME280;18669;53.356;-1.464;2022-07-18T04:24:15;100917.72;;;23.34;37.34
29839;BME280;18669;53.356;-1.464;2022-07-18T04:26:41;100915.56;;;23.39;37.59
29839;BME280;18669;53.356;-1.464;2022-07-18T04:29:06;100918.16;;;23.41;39.59
29839;BME280;18669;53.356;-1.464;2022-07-18T04:31:33;100911.09;;;23.40;37.71
29839;BME280;18669;53.356;-1.464;2022-07-18T04:33:59;100903.25;;;23.37;38.57
29839;BME280;18669;53.356;-1.464;2022-07-18T04:36:25;100908.69;;;23.35;37.83
29839;BME280;18669;53.356;-1.464;2022-07-18T04:38:51;100897.66;;;23.40;36.85
29839;BME280;18669;53.356;-1.464;2022-07-18T04:41:17;100894.84;;;23.42;36.31
29839;BME280;18669;53.356;-1.464;2022-07-18T04:43:45;100893.88;;;23.43;36.64
29839;BME280;18669;53.356;-1.464;2022-07-18T04:46:10;100890.78;;;23.49;36.71
29839;BME280;18669;53.356;-1.464;2022-07-18T04:48:36;100885.06;;;23.53;36.14
29839;BME280;18669;53.356;-1.464;2022-07-18T04:51:04;100886.16;;;23.51;36.02
29839;BME280;18669;53.356;-1.464;2022-07-18T04:53:30;100878.09;;;23.51;36.70
29839;BME280;18669;53.356;-1.464;2022-07-18T04:55:56;100881.88;;;23.48;37.66
29839;BME280;18669;53.356;-1.464;2022-07-18T04:58:22;100875.75;;;23.46;36.94
29839;BME280;18669;53.356;-1.464;2022-07-18T05:00:47;100877.34;;;23.49;37.21
29839;BME280;18669;53.356;-1.464;2022-07-18T05:03:13;100886.56;;;23.45;37.95
29839;BME280;18669;53.356;-1.464;2022-07-18T05:05:39;100884.09;;;23.42;38.49
29839;BME280;18669;53.356;-1.464;2022-07-18T05:08:05;100885.94;;;23.41;39.44
29839;BME280;18669;53.356;-1.464;2022-07-18T05:10:31;100874.34;;;23.41;36.80
29839;BME280;18669;53.356;-1.464;2022-07-18T05:12:57;100877.78;;;23.43;37.21
29839;BME280;18669;53.356;-1.464;2022-07-18T05:15:24;100875.97;;;23.43;38.58
29839;BME280;18669;53.356;-1.464;2022-07-18T05:17:50;100873.06;;;23.46;37.25
29839;BME280;18669;53.356;-1.464;2022-07-18T05:20:17;100877.34;;;23.49;38.61
29839;BME280;18669;53.356;-1.464;2022-07-18T05:22:43;100875.28;;;23.52;36.50
29839;BME280;18669;53.356;-1.464;2022-07-18T05:25:10;100875.06;;;23.56;37.41
29839;BME280;18669;53.356;-1.464;2022-07-18T05:27:36;100869.59;;;23.57;37.36
29839;BME280;18669;53.356;-1.464;2022-07-18T05:30:03;100866.69;;;23.60;35.79
29839;BME280;18669;53.356;-1.464;2022-07-18T05:32:30;100869.91;;;23.65;35.94
29839;BME280;18669;53.356;-1.464;2022-07-18T05:34:56;100872.47;;;23.67;40.51
29839;BME280;18669;53.356;-1.464;2022-07-18T05:37:22;100875.91;;;23.69;38.32
29839;BME280;18669;53.356;-1.464;2022-07-18T05:39:48;100870.31;;;23.72;38.16
29839;BME280;18669;53.356;-1.464;2022-07-18T05:42:16;100869.97;;;23.77;39.31
29839;BME280;18669;53.356;-1.464;2022-07-18T05:44:42;100872.22;;;23.83;38.71
29839;BME280;18669;53.356;-1.464;2022-07-18T05:47:08;100866.34;;;23.65;41.87
29839;BME280;18669;53.356;-1.464;2022-07-18T05:49:34;100865.38;;;23.66;40.18
29839;BME280;18669;53.356;-1.464;2022-07-18T05:52:00;100870.75;;;23.66;41.55
29839;BME280;18669;53.356;-1.464;2022-07-18T05:54:26;100865.16;;;23.69;40.37
29839;BME280;18669;53.356;-1.464;2022-07-18T05:56:52;100862.88;;;23.76;39.83
29839;BME280;18669;53.356;-1.464;2022-07-18T05:59:18;100859.66;;;23.83;39.65
29839;BME280;18669;53.356;-1.464;2022-07-18T06:01:45;100867.25;;;23.90;39.89
29839;BME280;18669;53.356;-1.464;2022-07-18T06:04:11;100867.03;;;23.93;40.24
29839;BME280;18669;53.356;-1.464;2022-07-18T06:06:37;100870.59;;;23.93;40.61
29839;BME280;18669;53.356;-1.464;2022-07-18T06:09:03;100872.16;;;23.96;41.01
29839;BME280;18669;53.356;-1.464;2022-07-18T06:11:29;100875.63;;;23.98;42.29
29839;BME280;18669;53.356;-1.464;2022-07-18T06:13:55;100874.56;;;24.01;42.43
29839;BME280;18669;53.356;-1.464;2022-07-18T06:27:26;100880.56;;;24.53;44.04
29839;BME280;18669;53.356;-1.464;2022-07-18T06:29:52;100853.75;;;24.51;43.44
29839;BME280;18669;53.356;-1.464;2022-07-18T06:32:18;100872.34;;;24.79;43.24
29839;BME280;18669;53.356;-1.464;2022-07-18T06:34:44;100846.28;;;24.79;43.62
29839;BME280;18669;53.356;-1.464;2022-07-18T06:37:11;100878.78;;;25.12;42.74
29839;BME280;18669;53.356;-1.464;2022-07-18T06:39:37;100876.44;;;25.18;41.27
29839;BME280;18669;53.356;-1.464;2022-07-18T06:42:04;100869.97;;;25.21;41.83
29839;BME280;18669;53.356;-1.464;2022-07-18T06:44:30;100872.31;;;25.26;43.46
29839;BME280;18669;53.356;-1.464;2022-07-18T06:46:56;100867.28;;;25.32;42.49
29839;BME280;18669;53.356;-1.464;2022-07-18T06:49:26;100871.19;;;25.40;45.00
29839;BME280;18669;53.356;-1.464;2022-07-18T06:51:52;100867.31;;;25.44;44.62
29839;BME280;18669;53.356;-1.464;2022-07-18T06:54:18;100873.91;;;25.62;43.51
29839;BME280;18669;53.356;-1.464;2022-07-18T06:56:46;100888.34;;;25.73;46.76
29839;BME280;18669;53.356;-1.464;2022-07-18T06:59:12;100879.91;;;25.77;45.65
29839;BME280;18669;53.356;-1.464;2022-07-18T07:01:38;100867.41;;;25.76;46.56
29839;BME280;18669;53.356;-1.464;2022-07-18T07:04:04;100861.50;;;25.94;45.79
29839;BME280;18669;53.356;-1.464;2022-07-18T07:06:30;100870.03;;;26.11;47.15
29839;BME280;18669;53.356;-1.464;2022-07-18T07:08:56;100883.25;;;26.25;45.35
29839;BME280;18669;53.356;-1.464;2022-07-18T07:11:22;100868.00;;;26.35;46.46
29839;BME280;18669;53.356;-1.464;2022-07-18T07:13:49;100867.13;;;26.35;40.13
29839;BME280;18669;53.356;-1.464;2022-07-18T07:16:15;100867.88;;;26.37;41.19
29839;BME280;18669;53.356;-1.464;2022-07-18T07:18:41;100848.69;;;26.19;43.16
29839;BME280;18669;53.356;-1.464;2022-07-18T07:21:07;100860.22;;;26.10;43.82
29839;BME280;18669;53.356;-1.464;2022-07-18T07:23:35;100879.09;;;26.10;45.96
29839;BME280;18669;53.356;-1.464;2022-07-18T07:26:01;100867.47;;;25.98;45.93
29839;BME280;18669;53.356;-1.464;2022-07-18T07:28:27;100871.06;;;25.87;46.01
29839;BME280;18669;53.356;-1.464;2022-07-18T07:30:53;100879.63;;;25.81;47.93
29839;BME280;18669;53.356;-1.464;2022-07-18T07:33:19;100881.34;;;25.82;46.51
29839;BME280;18669;53.356;-1.464;2022-07-18T07:35:45;100872.16;;;25.96;43.07
29839;BME280;18669;53.356;-1.464;2022-07-18T07:38:12;100877.38;;;26.20;44.64
29839;BME280;18669;53.356;-1.464;2022-07-18T07:40:43;100864.78;;;26.42;43.50
29839;BME280;18669;53.356;-1.464;2022-07-18T07:43:12;100843.88;;;26.55;41.18
29839;BME280;18669;53.356;-1.464;2022-07-18T07:45:39;100869.84;;;26.89;39.62
29839;BME280;18669;53.356;-1.464;2022-07-18T07:48:06;100872.75;;;26.97;35.51
29839;BME280;18669;53.356;-1.464;2022-07-18T07:50:33;100867.16;;;26.89;37.89
29839;BME280;18669;53.356;-1.464;2022-07-18T07:53:02;100864.75;;;26.74;41.56
29839;BME280;18669;53.356;-1.464;2022-07-18T07:55:28;100858.56;;;26.62;43.17
29839;BME280;18669;53.356;-1.464;2022-07-18T07:57:55;100868.25;;;26.65;45.06
29839;BME280;18669;53.356;-1.464;2022-07-18T08:00:22;100858.16;;;26.67;43.49
29839;BME280;18669;53.356;-1.464;2022-07-18T08:03:01;100858.31;;;27.08;42.96
29839;BME280;18669;53.356;-1.464;2022-07-18T08:05:29;100872.03;;;27.47;44.94
29839;BME280;18669;53.356;-1.464;2022-07-18T08:07:57;100869.56;;;27.85;42.61
29839;BME280;18669;53.356;-1.464;2022-07-18T08:10:24;100865.66;;;28.38;32.93
29839;BME280;18669;53.356;-1.464;2022-07-18T08:12:50;100859.53;;;28.66;37.05
29839;BME280;18669;53.356;-1.464;2022-07-18T08:15:17;100849.97;;;28.91;34.65
29839;BME280;18669;53.356;-1.464;2022-07-18T08:17:44;100855.19;;;29.50;31.50
29839;BME280;18669;53.356;-1.464;2022-07-18T08:20:10;100853.38;;;30.33;29.70
29839;BME280;18669;53.356;-1.464;2022-07-18T08:22:58;100863.03;;;30.72;29.61
29839;BME280;18669;53.356;-1.464;2022-07-18T08:25:26;100861.50;;;31.65;26.16
29839;BME280;18669;53.356;-1.464;2022-07-18T08:27:53;100859.41;;;31.93;25.79
29839;BME280;18669;53.356;-1.464;2022-07-18T08:30:20;100859.78;;;32.15;26.28
29839;BME280;18669;53.356;-1.464;2022-07-18T08:32:47;100850.13;;;32.54;26.24
29839;BME280;18669;53.356;-1.464;2022-07-18T08:35:14;100850.28;;;32.52;28.06
29839;BME280;18669;53.356;-1.464;2022-07-18T08:37:40;100849.78;;;32.65;26.57
29839;BME280;18669;53.356;-1.464;2022-07-18T08:40:07;100848.00;;;33.06;26.96
29839;BME280;18669;53.356;-1.464;2022-07-18T08:42:35;100845.34;;;34.09;23.61
29839;BME280;18669;53.356;-1.464;2022-07-18T08:45:02;100849.88;;;34.16;23.21
29839;BME280;18669;53.356;-1.464;2022-07-18T08:47:29;100847.03;;;33.55;24.28
29839;BME280;18669;53.356;-1.464;2022-07-18T08:49:56;100837.50;;;33.51;25.45
29839;BME280;18669;53.356;-1.464;2022-07-18T08:52:23;100841.38;;;34.34;23.52
29839;BME280;18669;53.356;-1.464;2022-07-18T08:54:49;100849.63;;;34.88;22.15
29839;BME280;18669;53.356;-1.464;2022-07-18T08:57:16;100839.88;;;34.55;23.27
29839;BME280;18669;53.356;-1.464;2022-07-18T08:59:43;100842.78;;;34.54;22.68
29839;BME280;18669;53.356;-1.464;2022-07-18T09:02:09;100844.47;;;34.55;23.00
29839;BME280;18669;53.356;-1.464;2022-07-18T09:04:37;100846.28;;;35.31;22.88
29839;BME280;18669;53.356;-1.464;2022-07-18T09:07:04;100846.72;;;36.01;21.55
29839;BME280;18669;53.356;-1.464;2022-07-18T09:09:32;100842.22;;;36.15;21.50
29839;BME280;18669;53.356;-1.464;2022-07-18T09:12:09;100840.16;;;36.67;20.76
29839;BME280;18669;53.356;-1.464;2022-07-18T09:14:42;100840.97;;;36.68;20.77
29839;BME280;18669;53.356;-1.464;2022-07-18T09:17:13;100839.66;;;36.13;20.59
29839;BME280;18669;53.356;-1.464;2022-07-18T09:20:16;100843.28;;;36.42;20.91
29839;BME280;18669;53.356;-1.464;2022-07-18T09:22:46;100840.47;;;36.86;20.53
29839;BME280;18669;53.356;-1.464;2022-07-18T09:25:17;100827.78;;;37.55;19.08
29839;BME280;18669;53.356;-1.464;2022-07-18T09:27:51;100833.63;;;38.01;20.56
29839;BME280;18669;53.356;-1.464;2022-07-18T09:30:28;100833.84;;;38.19;19.89
29839;BME280;18669;53.356;-1.464;2022-07-18T09:33:09;100828.94;;;38.82;17.61
29839;BME280;18669;53.356;-1.464;2022-07-18T09:35:37;100828.81;;;38.43;19.69
29839;BME280;18669;53.356;-1.464;2022-07-18T09:38:08;100830.66;;;38.90;19.10
29839;BME280;18669;53.356;-1.464;2022-07-18T09:40:36;100827.03;;;39.03;17.64
29839;BME280;18669;53.356;-1.464;2022-07-18T09:43:05;100828.56;;;38.78;18.42
29839;BME280;18669;53.356;-1.464;2022-07-18T09:45:35;100823.25;;;38.84;17.83
29839;BME280;18669;53.356;-1.464;2022-07-18T09:48:06;100818.63;;;38.77;17.83
29839;BME280;18669;53.356;-1.464;2022-07-18T09:50:53;100813.97;;;39.82;16.22
29839;BME280;18669;53.356;-1.464;2022-07-18T09:55:54;100813.38;;;40.38;15.44
29839;BME280;18669;53.356;-1.464;2022-07-18T09:58:23;100817.53;;;40.72;15.16
29839;BME280;18669;53.356;-1.464;2022-07-18T10:00:49;100813.53;;;40.43;15.79
29839;BME280;18669;53.356;-1.464;2022-07-18T10:03:16;100817.34;;;40.67;15.23
29839;BME280;18669;53.356;-1.464;2022-07-18T10:05:44;100808.47;;;41.21;14.49
29839;BME280;18669;53.356;-1.464;2022-07-18T10:08:14;100813.63;;;40.30;15.16
29839;BME280;18669;53.356;-1.464;2022-07-18T10:10:43;100808.09;;;40.36;16.56
29839;BME280;18669;53.356;-1.464;2022-07-18T10:13:10;100808.06;;;40.99;15.78
29839;BME280;18669;53.356;-1.464;2022-07-18T10:15:38;100806.69;;;41.08;15.21
29839;BME280;18669;53.356;-1.464;2022-07-18T10:18:07;100808.63;;;40.89;15.97
29839;BME280;18669;53.356;-1.464;2022-07-18T10:20:42;100802.19;;;41.33;15.41
29839;BME280;18669;53.356;-1.464;2022-07-18T10:23:22;100813.75;;;41.72;14.89
29839;BME280;18669;53.356;-1.464;2022-07-18T10:26:21;100807.91;;;41.80;15.24
29839;BME280;18669;53.356;-1.464;2022-07-18T10:32:00;100809.00;;;42.57;13.80
29839;BME280;18669;53.356;-1.464;2022-07-18T10:34:32;100793.97;;;41.87;13.90
29839;BME280;18669;53.356;-1.464;2022-07-18T10:39:42;100807.44;;;42.49;13.75
29839;BME280;18669;53.356;-1.464;2022-07-18T10:42:16;100802.38;;;42.58;14.13
29839;BME280;18669;53.356;-1.464;2022-07-18T10:44:44;100798.53;;;43.12;12.90
29839;BME280;18669;53.356;-1.464;2022-07-18T10:47:17;100798.03;;;42.62;13.53
29839;BME280;18669;53.356;-1.464;2022-07-18T10:57:34;100795.50;;;44.91;12.40
29839;BME280;18669;53.356;-1.464;2022-07-18T11:02:46;100793.16;;;44.44;12.06
29839;BME280;18669;53.356;-1.464;2022-07-18T11:23:46;100780.66;;;44.07;13.22
29839;BME280;18669;53.356;-1.464;2022-07-18T11:26:17;100779.09;;;45.12;12.40
29839;BME280;18669;53.356;-1.464;2022-07-18T11:28:45;100773.59;;;44.16;12.28
29839;BME280;18669;53.356;-1.464;2022-07-18T11:31:12;100783.00;;;44.49;12.96
29839;BME280;18669;53.356;-1.464;2022-07-18T11:33:48;100778.38;;;45.77;12.02
29839;BME280;18669;53.356;-1.464;2022-07-18T11:36:22;100774.22;;;45.24;12.06
29839;BME280;18669;53.356;-1.464;2022-07-18T11:38:53;100770.47;;;45.63;12.34
29839;BME280;18669;53.356;-1.464;2022-07-18T11:41:21;100766.44;;;46.14;12.13
29839;BME280;18669;53.356;-1.464;2022-07-18T11:43:49;100764.44;;;46.47;11.42
29839;BME280;18669;53.356;-1.464;2022-07-18T11:46:17;100774.28;;;46.60;11.57
29839;BME280;18669;53.356;-1.464;2022-07-18T11:48:48;100761.16;;;46.12;12.88
29839;BME280;18669;53.356;-1.464;2022-07-18T11:51:19;100757.38;;;46.77;11.31
29839;BME280;18669;53.356;-1.464;2022-07-18T11:53:50;100762.06;;;45.85;12.09
29839;BME280;18669;53.356;-1.464;2022-07-18T11:56:18;100749.91;;;46.35;11.03
29839;BME280;18669;53.356;-1.464;2022-07-18T11:58:46;100748.81;;;45.65;11.61
29839;BME280;18669;53.356;-1.464;2022-07-18T12:01:13;100748.69;;;46.20;11.60
29839;BME280;18669;53.356;-1.464;2022-07-18T12:03:44;100752.00;;;46.60;11.28
29839;BME280;18669;53.356;-1.464;2022-07-18T12:08:43;100733.19;;;46.83;11.19
29839;BME280;18669;53.356;-1.464;2022-07-18T12:11:16;100740.78;;;46.44;11.32
29839;BME280;18669;53.356;-1.464;2022-07-18T12:19:12;100735.34;;;46.75;10.65
29839;BME280;18669;53.356;-1.464;2022-07-18T12:26:46;100735.75;;;47.00;11.41
29839;BME280;18669;53.356;-1.464;2022-07-18T12:29:12;100725.78;;;47.35;10.46
29839;BME280;18669;53.356;-1.464;2022-07-18T12:31:45;100727.75;;;47.76;10.71
29839;BME280;18669;53.356;-1.464;2022-07-18T12:34:16;100730.38;;;48.74;11.08
29839;BME280;18669;53.356;-1.464;2022-07-18T12:36:56;100730.72;;;49.52;10.43
29839;BME280;18669;53.356;-1.464;2022-07-18T12:39:32;100722.38;;;49.42;10.31
29839;BME280;18669;53.356;-1.464;2022-07-18T12:42:00;100718.63;;;49.57;10.37
29839;BME280;18669;53.356;-1.464;2022-07-18T12:44:29;100722.84;;;49.15;9.99
29839;BME280;18669;53.356;-1.464;2022-07-18T12:46:55;100715.53;;;48.79;10.29
29839;BME280;18669;53.356;-1.464;2022-07-18T12:49:21;100712.88;;;49.08;10.14
29839;BME280;18669;53.356;-1.464;2022-07-18T12:51:48;100709.38;;;48.82;9.52
29839;BME280;18669;53.356;-1.464;2022-07-18T12:54:16;100703.34;;;48.54;9.73
29839;BME280;18669;53.356;-1.464;2022-07-18T12:56:43;100708.38;;;48.52;10.27
29839;BME280;18669;53.356;-1.464;2022-07-18T12:59:09;100710.38;;;49.41;9.79
29839;BME280;18669;53.356;-1.464;2022-07-18T13:01:36;100700.41;;;49.30;9.92
29839;BME280;18669;53.356;-1.464;2022-07-18T13:04:03;100703.00;;;48.71;10.63
29839;BME280;18669;53.356;-1.464;2022-07-18T13:06:29;100694.81;;;48.14;11.44
29839;BME280;18669;53.356;-1.464;2022-07-18T13:08:55;100692.34;;;47.87;10.98
29839;BME280;18669;53.356;-1.464;2022-07-18T13:11:21;100690.63;;;48.17;11.27
29839;BME280;18669;53.356;-1.464;2022-07-18T13:13:48;100690.38;;;48.84;10.89
29839;BME280;18669;53.356;-1.464;2022-07-18T13:16:14;100695.19;;;48.73;11.54
29839;BME280;18669;53.356;-1.464;2022-07-18T13:18:40;100687.28;;;48.86;11.93
29839;BME280;18669;53.356;-1.464;2022-07-18T13:21:06;100688.84;;;49.02;12.15
29839;BME280;18669;53.356;-1.464;2022-07-18T13:23:32;100681.78;;;49.79;11.91
29839;BME280;18669;53.356;-1.464;2022-07-18T13:25:58;100679.94;;;50.23;10.78
29839;BME280;18669;53.356;-1.464;2022-07-18T13:28:24;100676.75;;;49.52;11.26
29839;BME280;18669;53.356;-1.464;2022-07-18T13:30:53;100675.06;;;49.21;11.46
29839;BME280;18669;53.356;-1.464;2022-07-18T13:33:19;100674.31;;;49.40;11.79
29839;BME280;18669;53.356;-1.464;2022-07-18T13:35:46;100671.81;;;49.44;11.35
29839;BME280;18669;53.356;-1.464;2022-07-18T13:38:13;100666.94;;;48.80;11.76
29839;BME280;18669;53.356;-1.464;2022-07-18T13:40:39;100664.75;;;50.05;11.07
29839;BME280;18669;53.356;-1.464;2022-07-18T13:43:05;100662.44;;;49.88;10.67